Terminal Aerodrome Forecast
Issued by NWS

Home | Current Version | Previous Version | Text Only | Print | Product List | Glossary On
Versions: 1 2 3 4 5 6 7 8 9 10 11 12 13
000
FTUS43 KSGF 311100
TAFBBG
TAF
KBBG 311138Z 3112/0112 33010KT P6SM OVC045 WS019/35035KT
     FM311500 33012G20KT P6SM BKN030
     FM312000 35012G22KT P6SM SCT040
     FM312200 34010KT P6SM SKC
     FM010100 VRB04KT P6SM SKC=

USA.gov is the U.S. government's official web portal to all federal, state and local government web resources and services.